Time;durP1;ratioP1;P1;durP2;ratioP2;P2;SDS_P1;SDS_P2;PMS_P1;PMS_P2;Temp;Humidity;BMP_temperature;BMP_pressure;BME280_temperature;BME280_humidity;BME280_pressure;Samples;Min_cycle;Max_cycle;Signal;HPM_P1;HPM_P2
2024/01/02 00:02:10;;;;;;;7.30;2.88;;;3.70;99.90;;;;;;5004992;28;20407;-47
2024/01/02 00:04:36;;;;;;;8.80;2.55;;;3.70;99.90;;;;;;5007609;28;20030;-52
2024/01/02 00:07:01;;;;;;;8.32;2.92;;;3.70;99.90;;;;;;5003879;28;20446;-47
2024/01/02 00:09:27;;;;;;;13.43;3.20;;;3.70;99.90;;;;;;5005223;28;20037;-50
2024/01/02 00:11:52;;;;;;;9.13;3.00;;;3.70;99.90;;;;;;5003236;28;20386;-48
2024/01/02 00:14:18;;;;;;;9.10;2.60;;;3.60;99.90;;;;;;5003431;28;20502;-51
2024/01/02 00:16:44;;;;;;;8.45;2.85;;;3.60;99.90;;;;;;5003887;28;20033;-48
2024/01/02 00:19:10;;;;;;;6.55;2.45;;;3.60;99.90;;;;;;5003952;28;20116;-49
2024/01/02 00:21:35;;;;;;;9.20;2.70;;;3.60;99.90;;;;;;5003281;28;20141;-47
2024/01/02 00:24:02;;;;;;;7.15;2.65;;;3.50;99.90;;;;;;5002947;28;20178;-48
2024/01/02 00:26:28;;;;;;;7.20;2.60;;;3.50;99.90;;;;;;5000703;28;20486;-47
2024/01/02 00:28:53;;;;;;;8.50;2.22;;;3.50;99.90;;;;;;4997476;28;20041;-54
2024/01/02 00:31:19;;;;;;;5.78;2.85;;;3.50;99.90;;;;;;5002359;28;20089;-53
2024/01/02 00:33:45;;;;;;;5.68;2.90;;;3.50;99.90;;;;;;5008368;28;20022;-52
2024/01/02 00:36:16;;;;;;;9.63;3.35;;;3.40;99.90;;;;;;5002676;28;20552;-53
2024/01/02 00:38:42;;;;;;;11.43;2.67;;;3.40;99.90;;;;;;5003111;28;20026;-48
2024/01/02 00:41:08;;;;;;;9.23;2.63;;;3.40;99.90;;;;;;5005293;28;20094;-49
2024/01/02 00:43:33;;;;;;;6.20;2.65;;;3.40;99.90;;;;;;5004213;28;20169;-48
2024/01/02 00:46:01;;;;;;;9.32;2.75;;;3.30;99.90;;;;;;5001416;28;20449;-48
2024/01/02 00:48:27;;;;;;;4.80;2.67;;;3.30;99.90;;;;;;5002598;28;20042;-49
2024/01/02 00:50:52;;;;;;;7.53;3.08;;;3.30;99.90;;;;;;5005018;28;20032;-48
2024/01/02 00:53:19;;;;;;;5.00;2.95;;;3.30;99.90;;;;;;5001762;28;20703;-47
2024/01/02 00:55:44;;;;;;;11.70;3.55;;;3.30;99.90;;;;;;5003845;28;20609;-49
2024/01/02 00:58:10;;;;;;;9.25;2.85;;;3.30;99.90;;;;;;5002637;28;20037;-49
2024/01/02 01:00:35;;;;;;;12.05;3.92;;;3.30;99.90;;;;;;5005466;28;20390;-50
2024/01/02 01:03:01;;;;;;;11.07;3.40;;;3.30;99.90;;;;;;5004746;28;20033;-53
2024/01/02 01:05:26;;;;;;;8.48;3.10;;;3.20;99.90;;;;;;5002817;28;20562;-49
2024/01/02 01:07:52;;;;;;;12.30;3.83;;;3.20;99.90;;;;;;5001318;28;20022;-47
2024/01/02 01:10:18;;;;;;;15.07;4.18;;;3.20;99.90;;;;;;4994068;28;20099;-49
2024/01/02 01:12:45;;;;;;;11.35;3.80;;;3.20;99.90;;;;;;5002384;28;20490;-52
2024/01/02 01:15:10;;;;;;;7.53;3.28;;;3.20;99.90;;;;;;5000963;28;20139;-48
2024/01/02 01:17:37;;;;;;;9.40;3.47;;;3.20;99.90;;;;;;5004507;28;20497;-52
2024/01/02 01:20:03;;;;;;;12.13;4.35;;;3.20;99.90;;;;;;5000479;28;20025;-49
2024/01/02 01:22:28;;;;;;;10.50;3.72;;;3.20;99.90;;;;;;4997682;28;20033;-50
2024/01/02 01:24:54;;;;;;;7.93;3.63;;;3.30;99.90;;;;;;4999075;28;20117;-47
2024/01/02 01:27:22;;;;;;;13.93;4.05;;;3.20;99.90;;;;;;4999297;28;20185;-50
2024/01/02 01:29:48;;;;;;;16.10;3.70;;;3.30;99.90;;;;;;5000435;28;20494;-50
2024/01/02 01:32:14;;;;;;;11.73;4.18;;;3.30;99.90;;;;;;4999946;28;20029;-52
2024/01/02 01:34:39;;;;;;;10.10;4.38;;;3.30;99.90;;;;;;5005203;28;20026;-53
2024/01/02 01:37:05;;;;;;;9.00;3.75;;;3.30;99.90;;;;;;4998575;28;20109;-49
2024/01/02 01:39:30;;;;;;;10.85;3.97;;;3.30;99.90;;;;;;5000221;28;20450;-47
2024/01/02 01:41:56;;;;;;;8.00;3.55;;;3.30;99.90;;;;;;4996620;28;20026;-55
2024/01/02 01:44:21;;;;;;;10.32;4.20;;;3.30;99.90;;;;;;4999386;28;20510;-52
2024/01/02 01:46:47;;;;;;;12.57;3.95;;;3.30;99.90;;;;;;5000125;28;20105;-50
2024/01/02 01:49:14;;;;;;;8.32;3.67;;;3.20;99.90;;;;;;5001535;28;20030;-50
2024/01/02 01:51:41;;;;;;;13.13;4.45;;;3.20;99.90;;;;;;5000660;28;20026;-53
2024/01/02 01:54:07;;;;;;;13.10;4.97;;;3.30;99.90;;;;;;4997961;28;20509;-51
2024/01/02 01:56:34;;;;;;;10.32;4.13;;;3.30;99.90;;;;;;4997471;28;20057;-52
2024/01/02 01:59:04;;;;;;;14.32;4.25;;;3.30;99.90;;;;;;4982636;28;20430;-50
2024/01/02 02:01:30;;;;;;;10.32;3.53;;;3.30;99.90;;;;;;5001527;28;20076;-52
2024/01/02 02:03:57;;;;;;;11.00;4.32;;;3.30;99.90;;;;;;5002471;28;20525;-52
2024/01/02 02:06:22;;;;;;;8.40;3.58;;;3.20;99.90;;;;;;4998479;28;20518;-51
2024/01/02 02:08:50;;;;;;;9.93;4.25;;;3.30;99.90;;;;;;4999332;28;20137;-54
2024/01/02 02:11:16;;;;;;;10.88;4.43;;;3.20;99.90;;;;;;5000601;28;20041;-48
2024/01/02 02:13:42;;;;;;;9.63;4.05;;;3.30;99.90;;;;;;5001395;28;20025;-48
2024/01/02 02:16:07;;;;;;;4.93;2.95;;;3.30;99.90;;;;;;5001222;28;20029;-49
2024/01/02 02:18:33;;;;;;;9.88;3.67;;;3.20;99.90;;;;;;4999687;28;20580;-49
2024/01/02 02:20:58;;;;;;;7.75;3.95;;;3.20;99.90;;;;;;5000634;28;20034;-50
2024/01/02 02:23:24;;;;;;;9.63;2.83;;;3.10;99.90;;;;;;4999218;28;20545;-47
2024/01/02 02:25:49;;;;;;;12.52;4.10;;;3.10;99.90;;;;;;5001333;28;20100;-61
2024/01/02 02:28:15;;;;;;;11.27;3.60;;;3.10;99.90;;;;;;5009193;28;20037;-51
2024/01/02 02:30:41;;;;;;;8.70;3.80;;;3.10;99.90;;;;;;5010378;28;20022;-53
2024/01/02 02:33:06;;;;;;;9.95;3.80;;;3.10;99.90;;;;;;5005871;28;20404;-50
2024/01/02 02:35:32;;;;;;;10.13;3.83;;;3.10;99.90;;;;;;5002554;28;20029;-51
2024/01/02 02:37:57;;;;;;;10.63;3.83;;;3.00;99.90;;;;;;4998226;28;20033;-47
2024/01/02 02:40:23;;;;;;;4.97;3.00;;;3.10;99.90;;;;;;5000210;28;20514;-55
2024/01/02 02:42:49;;;;;;;10.98;3.92;;;3.10;99.90;;;;;;5001078;28;20510;-52
2024/01/02 02:45:14;;;;;;;9.05;3.10;;;3.00;99.90;;;;;;5000471;28;20106;-47
2024/01/02 02:47:40;;;;;;;10.75;3.40;;;3.00;99.90;;;;;;4999158;28;20045;-50
2024/01/02 02:50:06;;;;;;;13.98;3.92;;;3.10;99.90;;;;;;5001215;28;20399;-49
2024/01/02 02:52:32;;;;;;;8.77;3.08;;;3.00;99.90;;;;;;5003415;28;20042;-51
2024/01/02 02:54:58;;;;;;;10.45;4.15;;;3.10;99.90;;;;;;5002076;28;20030;-49
2024/01/02 02:57:24;;;;;;;13.32;3.03;;;3.00;99.90;;;;;;5002957;28;20139;-48
2024/01/02 02:59:50;;;;;;;14.68;4.15;;;3.00;99.90;;;;;;5003996;28;20028;-54
2024/01/02 03:02:16;;;;;;;9.45;3.88;;;3.00;99.90;;;;;;5001038;28;20034;-51
2024/01/02 03:04:42;;;;;;;9.05;3.53;;;3.00;99.90;;;;;;5005853;28;20429;-50
2024/01/02 03:07:09;;;;;;;10.55;3.63;;;3.00;99.90;;;;;;5006621;28;20032;-51
2024/01/02 03:09:34;;;;;;;8.40;3.83;;;3.00;99.90;;;;;;5001950;28;20038;-48
2024/01/02 03:12:00;;;;;;;10.80;4.40;;;3.00;99.90;;;;;;5006366;28;20108;-49
2024/01/02 03:14:25;;;;;;;13.95;4.45;;;3.00;99.90;;;;;;5003462;28;20034;-53
2024/01/02 03:16:51;;;;;;;15.77;3.75;;;3.10;99.90;;;;;;5004918;28;20050;-47
2024/01/02 03:19:17;;;;;;;7.35;3.67;;;3.10;99.90;;;;;;5003354;28;20026;-49
2024/01/02 03:21:42;;;;;;;6.78;3.80;;;3.00;99.90;;;;;;5004825;28;20037;-47
2024/01/02 03:24:08;;;;;;;9.35;3.67;;;3.00;99.90;;;;;;5004249;28;20034;-50
2024/01/02 03:26:33;;;;;;;8.63;4.25;;;3.00;99.90;;;;;;5001003;28;20065;-47
2024/01/02 03:28:59;;;;;;;8.00;3.45;;;3.00;99.90;;;;;;5003575;28;20030;-51
2024/01/02 03:31:24;;;;;;;13.38;4.40;;;3.00;99.90;;;;;;5003358;28;20449;-48
2024/01/02 03:33:50;;;;;;;9.43;3.40;;;3.00;99.90;;;;;;5004486;28;20053;-54
2024/01/02 03:36:20;;;;;;;8.98;3.67;;;3.00;99.90;;;;;;5004040;28;20494;-47
2024/01/02 03:38:47;;;;;;;11.52;3.90;;;3.00;99.90;;;;;;5010062;28;20434;-52
2024/01/02 03:41:13;;;;;;;8.73;3.60;;;3.00;99.90;;;;;;5007333;28;20094;-50
2024/01/02 03:43:39;;;;;;;10.02;4.30;;;2.90;99.90;;;;;;5004046;28;20542;-49
2024/01/02 03:46:05;;;;;;;15.32;3.60;;;2.90;99.90;;;;;;5000811;28;20028;-51
2024/01/02 03:48:31;;;;;;;13.82;3.60;;;2.90;99.90;;;;;;5003532;28;20030;-49
2024/01/02 03:50:56;;;;;;;10.95;3.88;;;2.90;99.90;;;;;;5002552;28;20026;-51
2024/01/02 03:53:22;;;;;;;6.72;3.40;;;2.90;99.90;;;;;;5006264;28;20018;-50
2024/01/02 03:55:48;;;;;;;11.38;4.15;;;2.90;99.90;;;;;;5004102;28;20030;-50
2024/01/02 03:58:13;;;;;;;11.20;4.15;;;3.00;99.90;;;;;;5002929;28;20037;-50
2024/01/02 04:00:39;;;;;;;13.73;4.13;;;3.00;99.90;;;;;;5004286;28;20236;-49
2024/01/02 04:03:08;;;;;;;9.32;3.47;;;3.00;99.90;;;;;;5002757;28;20034;-49
2024/01/02 04:05:34;;;;;;;12.77;3.90;;;3.00;99.90;;;;;;5003424;28;20046;-50
2024/01/02 04:07:59;;;;;;;11.60;3.67;;;3.00;99.90;;;;;;5003318;28;20073;-48
2024/01/02 04:10:25;;;;;;;9.95;3.90;;;3.00;99.90;;;;;;5005319;28;20030;-48
2024/01/02 04:12:50;;;;;;;12.32;4.38;;;3.00;99.90;;;;;;5001400;28;20037;-50
2024/01/02 04:15:16;;;;;;;14.05;4.35;;;3.00;99.90;;;;;;5005663;28;20026;-49
2024/01/02 04:17:41;;;;;;;8.52;3.80;;;3.00;99.90;;;;;;5002539;28;20080;-47
2024/01/02 04:20:07;;;;;;;8.50;4.13;;;3.00;99.90;;;;;;5005317;28;20031;-55
2024/01/02 04:22:33;;;;;;;7.07;4.05;;;3.00;99.90;;;;;;5002508;28;20057;-54
2024/01/02 04:24:58;;;;;;;8.43;4.05;;;3.00;99.90;;;;;;5001904;28;20030;-48
2024/01/02 04:27:24;;;;;;;9.02;3.55;;;3.00;99.90;;;;;;5001980;28;20034;-47
2024/01/02 04:29:49;;;;;;;12.02;3.67;;;3.00;99.90;;;;;;5005704;28;20018;-57
2024/01/02 04:32:15;;;;;;;7.60;3.80;;;3.00;99.90;;;;;;5002749;28;20014;-50
2024/01/02 04:34:42;;;;;;;10.90;3.53;;;3.00;99.90;;;;;;5006104;28;20494;-53
2024/01/02 04:37:07;;;;;;;11.52;3.83;;;3.00;99.90;;;;;;5003371;28;20558;-52
2024/01/02 04:39:33;;;;;;;8.10;3.67;;;3.10;99.90;;;;;;5000130;28;20125;-50
2024/01/02 04:42:00;;;;;;;12.60;3.60;;;3.10;99.90;;;;;;5002875;28;20122;-49
2024/01/02 04:44:29;;;;;;;10.65;3.38;;;3.10;99.90;;;;;;5003360;28;20112;-47
2024/01/02 04:46:55;;;;;;;11.63;3.92;;;3.10;99.90;;;;;;5002036;28;20073;-55
2024/01/02 04:49:20;;;;;;;9.43;3.38;;;3.10;99.90;;;;;;5001617;28;20056;-50
2024/01/02 04:51:46;;;;;;;8.27;3.20;;;3.20;99.90;;;;;;5003198;28;20101;-50
2024/01/02 04:54:11;;;;;;;12.43;3.53;;;3.20;99.90;;;;;;5007863;28;20017;-53
2024/01/02 04:56:37;;;;;;;12.55;3.92;;;3.20;99.90;;;;;;5003512;28;20133;-53
2024/01/02 04:59:03;;;;;;;9.85;3.17;;;3.20;99.90;;;;;;5004404;28;20030;-49
2024/01/02 05:01:29;;;;;;;11.40;3.90;;;3.20;99.90;;;;;;4999731;28;20038;-50
2024/01/02 05:03:55;;;;;;;10.38;3.63;;;3.20;99.90;;;;;;5003534;28;20041;-49
2024/01/02 05:06:23;;;;;;;10.45;3.30;;;3.20;99.90;;;;;;5002175;28;20058;-47
2024/01/02 05:08:49;;;;;;;4.70;3.00;;;3.20;99.90;;;;;;5002019;28;20029;-48
2024/01/02 05:11:14;;;;;;;8.90;2.85;;;3.20;99.90;;;;;;4999515;28;20030;-47
2024/01/02 05:13:40;;;;;;;10.50;3.67;;;3.20;99.90;;;;;;5001991;28;20717;-52
2024/01/02 05:16:08;;;;;;;10.32;3.35;;;3.20;99.90;;;;;;5004923;28;20029;-47
2024/01/02 05:18:33;;;;;;;9.98;3.75;;;3.20;99.90;;;;;;5004657;28;20113;-50
2024/01/02 05:20:59;;;;;;;8.00;3.35;;;3.20;99.90;;;;;;5008555;28;20038;-48
2024/01/02 05:23:24;;;;;;;9.38;3.42;;;3.20;99.90;;;;;;5002005;28;20571;-49
2024/01/02 05:25:50;;;;;;;10.00;3.38;;;3.20;99.90;;;;;;5002763;28;20040;-53
2024/01/02 05:28:16;;;;;;;10.35;3.60;;;3.20;99.90;;;;;;5000047;28;20028;-55
2024/01/02 05:30:41;;;;;;;7.40;2.85;;;3.30;99.90;;;;;;5002729;28;20030;-48
2024/01/02 05:33:07;;;;;;;8.63;3.35;;;3.30;99.90;;;;;;5004208;28;20029;-47
2024/01/02 05:35:32;;;;;;;7.00;2.35;;;3.30;99.90;;;;;;5003006;28;20022;-50
2024/01/02 05:37:59;;;;;;;9.07;3.00;;;3.30;99.90;;;;;;5004278;28;20026;-48
2024/01/02 05:40:24;;;;;;;6.53;2.97;;;3.40;99.90;;;;;;5003396;28;20061;-52
2024/01/02 05:42:50;;;;;;;7.60;2.65;;;3.40;99.90;;;;;;5002841;28;20510;-53
2024/01/02 05:45:15;;;;;;;13.88;2.67;;;3.40;99.90;;;;;;5001297;28;20064;-48
2024/01/02 05:47:41;;;;;;;5.25;2.60;;;3.40;99.90;;;;;;5003586;28;20042;-50
2024/01/02 05:50:07;;;;;;;5.85;2.58;;;3.40;99.90;;;;;;5002340;28;20583;-50
2024/01/02 05:52:33;;;;;;;5.57;2.65;;;3.40;99.90;;;;;;5003107;28;20037;-48
2024/01/02 05:54:59;;;;;;;9.02;2.92;;;3.40;99.90;;;;;;5002878;28;20033;-49
2024/01/02 05:57:24;;;;;;;9.27;2.17;;;3.50;99.90;;;;;;5005595;28;20023;-48
2024/01/02 05:59:50;;;;;;;4.07;2.38;;;3.50;99.90;;;;;;5010328;28;20620;-50
2024/01/02 06:02:16;;;;;;;8.63;2.42;;;3.50;99.90;;;;;;5001972;28;20057;-48
2024/01/02 06:04:41;;;;;;;5.43;2.55;;;3.60;99.90;;;;;;5001924;28;20053;-49
2024/01/02 06:07:07;;;;;;;8.63;2.55;;;3.60;99.90;;;;;;5000352;28;20025;-52
2024/01/02 06:09:32;;;;;;;7.63;2.70;;;3.60;99.90;;;;;;5003468;28;20052;-48
2024/01/02 06:11:58;;;;;;;11.32;2.72;;;3.60;99.90;;;;;;5002627;28;20464;-50
2024/01/02 06:14:23;;;;;;;10.50;2.33;;;3.60;99.90;;;;;;5003291;28;20473;-50
2024/01/02 06:16:49;;;;;;;6.57;2.33;;;3.60;99.90;;;;;;5001786;28;20633;-51
2024/01/02 06:19:18;;;;;;;4.47;2.10;;;3.60;99.90;;;;;;5002214;28;20703;-47
2024/01/02 06:21:43;;;;;;;8.40;2.22;;;3.70;99.90;;;;;;5003841;28;20129;-49
2024/01/02 06:24:09;;;;;;;8.20;2.60;;;3.70;99.90;;;;;;5000053;28;20042;-47
2024/01/02 06:26:34;;;;;;;7.13;2.13;;;3.70;99.90;;;;;;5004135;28;20113;-51
2024/01/02 06:29:00;;;;;;;10.52;2.72;;;3.70;99.90;;;;;;5002602;28;20110;-50
2024/01/02 06:31:25;;;;;;;10.10;3.05;;;3.80;99.90;;;;;;5008722;28;20494;-50
2024/01/02 06:33:51;;;;;;;6.15;2.13;;;3.70;99.90;;;;;;5006273;28;20054;-49
2024/01/02 06:36:17;;;;;;;9.57;2.17;;;3.80;99.90;;;;;;5007575;28;20449;-49
2024/01/02 06:38:42;;;;;;;9.90;2.55;;;3.80;99.90;;;;;;5009963;28;20022;-47
2024/01/02 06:41:08;;;;;;;8.80;2.05;;;3.80;99.90;;;;;;5005505;28;20667;-55
2024/01/02 06:43:34;;;;;;;8.00;3.05;;;3.80;99.90;;;;;;5006248;28;20709;-48
2024/01/02 06:46:02;;;;;;;7.35;2.22;;;3.80;99.90;;;;;;5010839;28;20029;-49
2024/01/02 06:48:28;;;;;;;6.43;1.80;;;3.80;99.90;;;;;;5006972;28;20038;-50
2024/01/02 06:50:53;;;;;;;2.60;1.65;;;3.80;99.90;;;;;;5005521;28;20532;-50
2024/01/02 06:53:19;;;;;;;8.57;2.42;;;3.80;99.90;;;;;;5008305;28;20316;-47
2024/01/02 06:55:44;;;;;;;8.27;2.25;;;3.80;99.90;;;;;;5007908;28;20540;-48
2024/01/02 06:58:11;;;;;;;8.75;2.45;;;3.80;99.90;;;;;;5005140;28;20061;-50
2024/01/02 07:00:36;;;;;;;7.55;2.20;;;3.80;99.90;;;;;;5005760;28;20037;-49
2024/01/02 07:03:02;;;;;;;6.55;2.05;;;3.80;99.90;;;;;;5005989;28;20080;-50
2024/01/02 07:05:28;;;;;;;5.72;2.28;;;3.80;99.90;;;;;;5008017;28;20036;-54
2024/01/02 07:07:53;;;;;;;8.52;2.38;;;3.80;99.90;;;;;;5005325;28;20029;-50
2024/01/02 07:10:19;;;;;;;9.55;2.30;;;3.80;99.90;;;;;;5006781;28;20060;-48
2024/01/02 07:12:45;;;;;;;9.68;2.15;;;3.80;99.90;;;;;;5005880;28;20052;-48
2024/01/02 07:15:10;;;;;;;8.30;2.13;;;3.90;99.90;;;;;;5006887;28;20053;-55
2024/01/02 07:17:36;;;;;;;3.35;2.28;;;3.90;99.90;;;;;;5006269;28;20041;-50
2024/01/02 07:20:02;;;;;;;9.00;2.55;;;3.90;99.90;;;;;;5003740;28;20142;-48
2024/01/02 07:22:28;;;;;;;6.63;2.28;;;3.90;99.90;;;;;;5006363;28;20041;-49
2024/01/02 07:24:53;;;;;;;4.10;1.60;;;3.90;99.90;;;;;;5005518;28;20026;-49
2024/01/02 07:27:19;;;;;;;7.20;2.10;;;3.90;99.90;;;;;;5004929;28;20031;-52
2024/01/02 07:29:45;;;;;;;8.00;2.10;;;3.90;99.90;;;;;;5003884;28;20097;-48
2024/01/02 07:32:13;;;;;;;5.45;2.08;;;4.00;99.90;;;;;;5003991;28;20722;-48
2024/01/02 07:34:38;;;;;;;8.48;2.05;;;4.00;99.90;;;;;;5005986;28;20553;-50
2024/01/02 07:37:04;;;;;;;10.38;2.30;;;4.00;99.90;;;;;;5002963;28;20030;-48
2024/01/02 07:39:30;;;;;;;4.63;1.60;;;4.00;99.90;;;;;;5004963;28;20099;-50
2024/01/02 07:41:55;;;;;;;11.40;2.10;;;4.00;99.90;;;;;;5004517;28;20022;-49
2024/01/02 07:44:22;;;;;;;6.95;1.92;;;4.00;99.90;;;;;;5006126;28;20026;-51
2024/01/02 07:46:47;;;;;;;5.43;2.17;;;4.00;99.90;;;;;;5004122;28;20478;-48
2024/01/02 07:49:13;;;;;;;8.40;1.85;;;4.00;99.90;;;;;;5004141;28;20041;-52
2024/01/02 07:51:38;;;;;;;3.75;1.77;;;4.00;99.90;;;;;;5005560;28;20034;-49
2024/01/02 07:54:04;;;;;;;7.95;2.35;;;4.10;99.90;;;;;;5003541;28;20053;-47
2024/01/02 07:56:30;;;;;;;7.68;2.63;;;4.10;99.90;;;;;;5004507;28;20660;-50
2024/01/02 07:58:56;;;;;;;4.50;1.73;;;4.10;99.90;;;;;;5007297;28;20018;-52
2024/01/02 08:01:22;;;;;;;5.97;2.05;;;4.00;99.90;;;;;;4998615;28;20485;-47
2024/01/02 08:03:48;;;;;;;6.45;2.05;;;4.10;99.90;;;;;;5003416;28;20032;-52
2024/01/02 08:06:13;;;;;;;6.93;2.20;;;4.10;99.90;;;;;;5006211;28;20675;-49
2024/01/02 08:08:39;;;;;;;3.40;1.63;;;4.10;99.90;;;;;;5001546;28;20524;-49
2024/01/02 08:11:04;;;;;;;9.70;2.10;;;4.10;99.90;;;;;;5001674;28;20034;-53
2024/01/02 08:13:30;;;;;;;6.20;1.88;;;4.10;99.90;;;;;;5004685;28;20125;-48
2024/01/02 08:15:56;;;;;;;5.82;1.60;;;4.10;99.90;;;;;;5007372;28;20030;-47
2024/01/02 08:18:22;;;;;;;1.88;1.20;;;4.10;99.90;;;;;;5004280;28;20024;-48
2024/01/02 08:20:47;;;;;;;5.45;1.60;;;4.10;99.90;;;;;;5004066;28;20045;-52
2024/01/02 08:23:13;;;;;;;11.73;2.22;;;4.10;99.90;;;;;;5003696;28;20034;-50
2024/01/02 08:25:39;;;;;;;3.90;2.05;;;4.10;99.90;;;;;;5005654;28;20049;-49
2024/01/02 08:28:06;;;;;;;4.35;1.48;;;4.10;99.90;;;;;;5003257;28;20076;-50
2024/01/02 08:30:32;;;;;;;2.38;1.55;;;4.00;99.90;;;;;;5007575;28;20864;-48
2024/01/02 08:32:58;;;;;;;5.30;1.80;;;4.10;99.90;;;;;;5004333;28;20026;-52
2024/01/02 08:35:23;;;;;;;7.28;1.50;;;4.10;99.90;;;;;;5003695;28;20407;-49
2024/01/02 08:37:49;;;;;;;7.18;1.98;;;4.10;99.90;;;;;;5005415;28;20105;-49
2024/01/02 08:40:15;;;;;;;5.68;1.33;;;4.10;99.90;;;;;;5011128;28;20037;-47
2024/01/02 08:42:41;;;;;;;5.35;1.55;;;4.10;99.90;;;;;;5003794;28;20042;-48
2024/01/02 08:45:09;;;;;;;4.82;2.20;;;4.10;99.90;;;;;;5002361;28;20018;-48
2024/01/02 08:47:39;;;;;;;6.57;1.80;;;4.10;99.90;;;;;;5006215;28;20041;-52
2024/01/02 08:50:06;;;;;;;4.35;1.98;;;4.10;99.90;;;;;;5005233;28;20433;-51
2024/01/02 08:52:32;;;;;;;5.85;2.33;;;4.10;99.90;;;;;;5006446;28;20034;-50
2024/01/02 08:54:59;;;;;;;3.10;1.40;;;4.10;99.90;;;;;;5004349;28;20045;-50
2024/01/02 08:57:25;;;;;;;4.80;1.75;;;4.10;99.90;;;;;;5003526;28;20556;-49
2024/01/02 08:59:50;;;;;;;5.63;1.33;;;4.10;99.90;;;;;;5001409;28;20053;-50
2024/01/02 09:02:16;;;;;;;5.15;1.80;;;4.10;99.90;;;;;;5001336;28;20035;-50
2024/01/02 09:04:43;;;;;;;4.38;2.03;;;4.10;99.90;;;;;;5006194;28;20410;-47
2024/01/02 09:07:09;;;;;;;6.60;1.40;;;4.20;99.90;;;;;;5001187;28;20022;-54
2024/01/02 09:09:35;;;;;;;6.03;1.25;;;4.10;99.90;;;;;;5001051;28;20067;-54
2024/01/02 09:12:02;;;;;;;5.88;1.45;;;4.20;99.90;;;;;;5004369;28;20030;-52
2024/01/02 09:14:28;;;;;;;3.55;1.42;;;4.20;99.90;;;;;;5001334;28;20034;-51
2024/01/02 09:16:54;;;;;;;4.40;1.42;;;4.20;99.90;;;;;;5003607;28;20033;-50
2024/01/02 09:19:19;;;;;;;6.20;1.65;;;4.20;99.90;;;;;;5002930;28;20029;-50
2024/01/02 09:21:45;;;;;;;4.28;1.63;;;4.20;99.90;;;;;;5003938;28;20052;-49
2024/01/02 09:24:13;;;;;;;3.55;1.77;;;4.20;99.90;;;;;;5002867;28;20826;-49
2024/01/02 09:26:40;;;;;;;5.97;1.60;;;4.20;99.90;;;;;;5003659;28;20698;-51
2024/01/02 09:29:05;;;;;;;3.75;1.23;;;4.20;99.90;;;;;;5002297;28;20034;-47
2024/01/02 09:31:31;;;;;;;7.50;1.88;;;4.20;99.90;;;;;;5004021;28;20026;-52
2024/01/02 09:33:57;;;;;;;4.88;2.55;;;4.20;99.90;;;;;;5001174;28;20033;-52
2024/01/02 09:36:22;;;;;;;3.75;1.92;;;4.30;99.90;;;;;;5010520;28;20167;-47
2024/01/02 09:38:48;;;;;;;5.10;3.65;;;4.30;99.90;;;;;;5003774;28;20404;-49
2024/01/02 09:41:38;;;;;;;6.50;1.67;;;4.30;99.90;;;;;;5003983;28;20037;-48
2024/01/02 09:44:11;;;;;;;1.70;1.40;;;4.30;99.90;;;;;;5000523;28;20026;-51
2024/01/02 09:46:47;;;;;;;4.03;1.33;;;4.20;99.90;;;;;;5001227;28;20156;-49
2024/01/02 09:49:35;;;;;;;;;;;4.30;99.90;;;;;;5000870;28;20277;-50
2024/01/02 09:52:20;;;;;;;4.47;1.35;;;4.30;99.90;;;;;;5002812;28;19917;-50
2024/01/02 09:55:06;;;;;;;2.30;1.70;;;4.30;99.90;;;;;;5002314;28;20026;-51
2024/01/02 09:57:38;;;;;;;2.53;1.75;;;4.30;99.90;;;;;;5005790;28;20025;-49
2024/01/02 10:00:21;;;;;;;4.32;1.73;;;4.20;99.90;;;;;;5001885;28;20030;-50
2024/01/02 10:02:59;;;;;;;2.45;1.52;;;4.30;99.90;;;;;;5001754;28;20018;-49
2024/01/02 10:05:38;;;;;;;3.92;1.70;;;4.30;99.90;;;;;;5000465;28;20018;-47
2024/01/02 10:08:07;;;;;;;6.90;1.52;;;4.30;99.90;;;;;;5005019;28;20188;-50
2024/01/02 10:10:36;;;;;;;3.58;1.90;;;4.40;99.90;;;;;;5002428;28;20521;-49
2024/01/02 10:13:28;;;;;;;3.90;1.45;;;4.40;99.90;;;;;;5001834;28;20028;-50
2024/01/02 10:16:07;;;;;;;2.90;1.52;;;4.40;99.90;;;;;;5003811;28;20026;-53
2024/01/02 10:18:40;;;;;;;3.60;1.63;;;4.30;99.90;;;;;;5000695;28;20033;-54
2024/01/02 10:21:30;;;;;;;3.80;2.03;;;4.30;99.90;;;;;;5002243;28;20067;-53
2024/01/02 10:24:41;;;;;;;1.98;0.85;;;4.30;99.90;;;;;;4998320;28;20494;-55
2024/01/02 10:27:12;;;;;;;2.95;1.63;;;4.30;99.90;;;;;;5002384;28;20123;-53
2024/01/02 10:29:57;;;;;;;3.03;1.30;;;4.40;99.90;;;;;;5001251;28;20068;-55
2024/01/02 10:33:07;;;;;;;6.67;1.70;;;4.40;99.90;;;;;;4984145;28;20690;-53
2024/01/02 10:35:44;;;;;;;5.15;1.65;;;4.40;99.90;;;;;;5004074;28;20036;-48
2024/01/02 10:38:27;;;;;;;1.23;1.13;;;4.40;99.90;;;;;;5004272;28;20062;-49
2024/01/02 10:41:16;;;;;;;2.67;1.20;;;4.40;99.90;;;;;;4999601;28;20034;-49
2024/01/02 10:44:03;;;;;;;1.42;1.33;;;4.40;99.90;;;;;;5001072;28;20049;-53
2024/01/02 10:46:47;;;;;;;5.07;1.35;;;4.50;99.90;;;;;;5006810;28;20088;-48
2024/01/02 10:49:27;;;;;;;5.35;1.55;;;4.50;99.90;;;;;;5000006;28;20033;-49
2024/01/02 10:52:01;;;;;;;2.95;1.33;;;4.50;99.90;;;;;;5000998;28;20544;-48
2024/01/02 10:55:01;;;;;;;3.60;1.40;;;4.50;99.90;;;;;;5002103;28;20038;-50
2024/01/02 10:58:00;;;;;;;2.45;1.05;;;4.50;99.90;;;;;;4998733;28;20026;-50
2024/01/02 11:00:30;;;;;;;2.28;1.33;;;4.50;99.90;;;;;;5000964;28;20033;-49
2024/01/02 11:03:03;;;;;;;1.33;1.23;;;4.50;99.90;;;;;;5001309;28;20554;-54
2024/01/02 11:05:36;;;;;;;1.40;1.10;;;4.50;99.90;;;;;;5008380;28;20029;-49
2024/01/02 11:08:19;;;;;;;2.22;1.70;;;4.50;99.90;;;;;;5002319;28;20042;-50
2024/01/02 11:10:57;;;;;;;3.50;1.35;;;4.50;99.90;;;;;;5001211;28;20109;-54
2024/01/02 11:13:26;;;;;;;2.40;1.52;;;4.50;99.90;;;;;;5002193;28;20036;-51
2024/01/02 11:16:00;;;;;;;2.08;1.67;;;4.60;99.90;;;;;;5039480;22;20119;-55
2024/01/02 11:18:29;;;;;;;3.15;1.48;;;4.60;99.90;;;;;;5022029;28;20033;-57
2024/01/02 11:21:21;;;;;;;3.10;1.60;;;4.60;99.90;;;;;;5017015;28;20022;-53
2024/01/02 11:23:52;;;;;;;2.90;1.10;;;4.60;99.90;;;;;;5023302;28;20029;-55
2024/01/02 11:26:24;;;;;;;2.33;1.17;;;4.60;99.90;;;;;;5020078;28;20021;-58
2024/01/02 11:28:51;;;;;;;3.85;1.15;;;4.60;99.90;;;;;;5021898;28;20112;-58
2024/01/02 11:31:18;;;;;;;3.05;1.38;;;4.60;99.90;;;;;;5016944;28;20053;-58
2024/01/02 11:33:57;;;;;;;2.67;1.40;;;4.70;99.90;;;;;;5020752;28;20029;-56
2024/01/02 11:36:30;;;;;;;2.03;1.60;;;4.70;99.90;;;;;;5021322;28;20018;-56
2024/01/02 11:38:56;;;;;;;2.80;1.52;;;4.60;99.90;;;;;;5020603;28;20605;-56
2024/01/02 11:41:40;;;;;;;1.67;1.35;;;4.70;99.90;;;;;;5019045;28;20018;-58
2024/01/02 11:44:28;;;;;;;3.22;1.45;;;4.70;99.90;;;;;;5020130;28;20091;-56
2024/01/02 11:47:03;;;;;;;1.70;1.50;;;4.70;99.90;;;;;;5019583;28;20030;-57
2024/01/02 11:49:28;;;;;;;2.95;1.25;;;4.70;99.90;;;;;;5019362;28;20037;-59
2024/01/02 11:52:08;;;;;;;1.52;1.10;;;4.70;99.90;;;;;;5019776;28;20028;-55
2024/01/02 11:54:52;;;;;;;1.48;1.10;;;4.70;99.90;;;;;;5017233;28;20025;-57
2024/01/02 11:57:26;;;;;;;2.50;1.20;;;4.80;99.90;;;;;;5022295;28;20508;-57
2024/01/02 11:59:57;;;;;;;2.17;1.52;;;4.80;99.90;;;;;;5019343;28;20504;-58
2024/01/02 12:02:51;;;;;;;1.70;1.42;;;4.80;99.90;;;;;;5018733;28;20120;-58
2024/01/02 12:05:37;;;;;;;3.08;1.35;;;4.80;99.90;;;;;;5019245;28;20098;-56
2024/01/02 12:08:09;;;;;;;0.90;0.73;;;4.80;99.90;;;;;;5019712;28;20025;-59
2024/01/02 12:10:41;;;;;;;1.02;0.93;;;4.90;99.90;;;;;;5018326;28;20283;-56
2024/01/02 12:13:19;;;;;;;1.30;1.00;;;4.90;99.90;;;;;;5018416;28;20494;-56
2024/01/02 12:15:47;;;;;;;1.17;0.90;;;4.90;99.90;;;;;;5014250;28;20117;-57
2024/01/02 12:18:17;;;;;;;1.45;1.10;;;4.90;99.90;;;;;;5020430;28;20159;-55
2024/01/02 12:20:42;;;;;;;1.63;1.00;;;4.90;99.90;;;;;;5014741;28;20025;-57
2024/01/02 12:23:08;;;;;;;3.08;1.00;;;5.00;99.90;;;;;;5021437;28;20025;-59
2024/01/02 12:25:34;;;;;;;1.95;1.08;;;5.00;99.90;;;;;;5019436;28;20497;-56
2024/01/02 12:28:02;;;;;;;1.23;0.82;;;5.00;99.90;;;;;;5014984;28;20029;-57
2024/01/02 12:30:54;;;;;;;1.52;0.90;;;5.00;99.90;;;;;;5019315;28;20454;-58
2024/01/02 12:33:34;;;;;;;0.85;0.85;;;5.00;99.90;;;;;;5018474;28;20382;-57
2024/01/02 12:36:18;;;;;;;0.85;0.82;;;5.00;99.90;;;;;;5023378;28;20029;-55
2024/01/02 12:38:50;;;;;;;0.73;0.73;;;5.00;99.90;;;;;;5022836;28;20406;-55
2024/01/02 12:41:23;;;;;;;0.50;0.50;;;5.00;99.90;;;;;;5019534;28;20606;-57
2024/01/02 12:43:56;;;;;;;0.93;0.70;;;5.00;99.90;;;;;;5016736;28;20495;-56
2024/01/02 12:46:31;;;;;;;1.30;0.70;;;5.00;99.90;;;;;;5018943;28;20040;-56
2024/01/02 12:49:21;;;;;;;1.65;0.77;;;5.10;99.90;;;;;;5018776;28;20026;-54
2024/01/02 12:51:47;;;;;;;0.80;0.77;;;5.10;99.90;;;;;;5017418;28;20171;-58
2024/01/02 12:54:17;;;;;;;1.35;0.90;;;5.00;99.90;;;;;;5014098;28;20057;-55
2024/01/02 12:57:00;;;;;;;0.90;0.65;;;5.00;99.90;;;;;;5017365;28;20130;-56
2024/01/02 12:59:30;;;;;;;0.73;0.73;;;5.00;99.90;;;;;;5019101;28;20034;-57
2024/01/02 13:01:57;;;;;;;0.70;0.60;;;5.00;99.90;;;;;;5011453;28;20108;-56
2024/01/02 13:04:25;;;;;;;1.77;0.60;;;5.10;99.90;;;;;;5015398;28;20858;-56